createdAt,value
2022-10-24T00:01:13.412Z,100317.72
2022-10-24T00:03:42.015Z,100312.13
2022-10-24T00:06:13.798Z,100311.22
2022-10-24T00:08:43.812Z,100303.13
2022-10-24T00:11:13.810Z,100293.50
2022-10-24T00:13:42.968Z,100299.22
2022-10-24T00:16:11.580Z,100287.41
2022-10-24T00:18:39.719Z,100289.88
2022-10-24T00:21:08.972Z,100298.84
2022-10-24T00:23:38.621Z,100287.22
2022-10-24T00:26:07.210Z,100291.88
2022-10-24T00:28:37.250Z,100277.09
2022-10-24T00:31:07.332Z,100290.44
2022-10-24T00:33:35.822Z,100287.34
2022-10-24T00:36:04.028Z,100290.25
2022-10-24T00:38:32.533Z,100289.28
2022-10-24T00:41:01.820Z,100288.53
2022-10-24T00:43:29.691Z,100282.25
2022-10-24T00:46:00.766Z,100276.91
2022-10-24T00:48:34.742Z,100275.19
2022-10-24T00:51:09.600Z,100266.44
2022-10-24T00:53:44.132Z,100256.19
2022-10-24T00:56:15.736Z,100274.06
2022-10-24T00:58:46.943Z,100271.59
2022-10-24T01:01:15.630Z,100259.97
2022-10-24T01:03:43.597Z,100267.69
2022-10-24T01:06:30.423Z,100268.53
2022-10-24T01:09:11.168Z,100269.13
2022-10-24T01:11:52.791Z,100269.03
2022-10-24T01:14:42.751Z,100256.25
2022-10-24T01:17:18.464Z,100255.59
2022-10-24T01:20:14.384Z,100251.56
2022-10-24T01:22:56.331Z,100247.09
2022-10-24T01:25:38.299Z,100230.41
2022-10-24T01:28:12.520Z,100233.19
2022-10-24T01:30:45.275Z,100236.94
2022-10-24T01:33:20.716Z,100230.75
2022-10-24T01:35:53.923Z,100213.75
2022-10-24T01:38:27.689Z,100208.44
2022-10-24T01:41:00.258Z,100211.66
2022-10-24T01:43:32.669Z,100219.34
2022-10-24T01:46:05.175Z,100224.69
2022-10-24T01:48:37.141Z,100227.25
2022-10-24T01:51:07.461Z,100206.56
2022-10-24T01:53:38.434Z,100211.88
2022-10-24T01:56:07.124Z,100199.69
2022-10-24T01:58:35.186Z,100210.94
2022-10-24T02:01:10.225Z,100193.09
2022-10-24T02:03:41.801Z,100188.63
2022-10-24T02:06:15.510Z,100187.66
2022-10-24T02:08:47.924Z,100184.97
2022-10-24T02:11:16.049Z,100175.06
2022-10-24T02:13:52.563Z,100172.59
2022-10-24T02:16:22.455Z,100164.69
2022-10-24T02:18:55.956Z,100163.28
2022-10-24T02:21:32.864Z,100152.63
2022-10-24T02:24:07.351Z,100149.09
2022-10-24T02:26:43.088Z,100147.59
2022-10-24T02:29:16.840Z,100144.50
2022-10-24T02:31:54.094Z,100148.47
2022-10-24T02:34:24.523Z,100134.47
2022-10-24T02:36:55.376Z,100126.78
2022-10-24T02:39:28.495Z,100117.16
2022-10-24T02:41:58.943Z,100123.25
2022-10-24T02:44:28.044Z,100110.88
2022-10-24T02:47:01.451Z,100106.25
2022-10-24T02:49:34.358Z,100094.81
2022-10-24T02:52:50.660Z,100070.78
2022-10-24T02:55:24.774Z,100062.06
2022-10-24T02:57:52.769Z,100076.50
2022-10-24T03:00:22.580Z,100076.69
2022-10-24T03:03:02.518Z,100069.88
2022-10-24T03:05:30.652Z,100070.94
2022-10-24T03:08:01.628Z,100045.38
2022-10-24T03:10:35.727Z,100050.50
2022-10-24T03:13:04.174Z,100042.06
2022-10-24T03:15:32.172Z,100038.09
2022-10-24T03:18:00.253Z,100035.03
2022-10-24T03:20:31.550Z,100040.16
2022-10-24T03:23:00.307Z,100017.50
2022-10-24T03:25:28.086Z,100022.63
2022-10-24T03:27:58.400Z,100024.25
2022-10-24T03:30:26.480Z,100038.78
2022-10-24T03:32:54.361Z,100036.03
2022-10-24T03:35:25.057Z,100054.72
2022-10-24T03:37:55.444Z,100055.34
2022-10-24T03:40:23.320Z,100034.63
2022-10-24T03:42:51.352Z,100035.88
2022-10-24T03:45:19.198Z,100023.84
2022-10-24T03:47:47.227Z,100027.97
2022-10-24T03:50:18.937Z,100024.44
2022-10-24T03:52:47.167Z,100008.69
2022-10-24T03:55:17.732Z,100013.03
2022-10-24T03:57:47.911Z,100011.22
2022-10-24T04:00:18.878Z,100015.19
2022-10-24T04:02:48.030Z,100015.22
2022-10-24T04:05:15.967Z,100031.97
2022-10-24T04:07:44.920Z,100037.41
2022-10-24T04:10:13.299Z,100047.34
2022-10-24T04:12:42.728Z,100055.13
2022-10-24T04:15:11.815Z,100056.19
2022-10-24T04:17:39.965Z,100048.72
2022-10-24T04:20:08.755Z,100038.94
2022-10-24T04:22:38.980Z,100020.97
2022-10-24T04:25:09.283Z,100035.28
2022-10-24T04:27:41.485Z,100020.97
2022-10-24T04:30:16.482Z,100009.91
2022-10-24T04:32:47.291Z,100007.66
2022-10-24T04:35:15.573Z,99994.41
2022-10-24T04:37:43.330Z,99998.28
2022-10-24T04:40:12.447Z,99992.59
2022-10-24T04:42:41.934Z,99996.84
2022-10-24T04:45:12.223Z,100007.09
2022-10-24T04:47:40.149Z,100006.47
2022-10-24T04:50:09.332Z,100009.03
2022-10-24T04:52:37.373Z,100012.97
2022-10-24T04:55:05.968Z,100016.47
2022-10-24T04:57:34.483Z,100018.41
2022-10-24T05:00:02.279Z,100007.00
2022-10-24T05:02:31.627Z,100003.28
2022-10-24T05:04:59.505Z,99989.00
2022-10-24T05:07:28.639Z,99995.38
2022-10-24T05:09:56.807Z,99980.13
2022-10-24T05:12:24.729Z,99981.72
2022-10-24T05:14:52.546Z,99994.94
2022-10-24T05:17:20.460Z,99980.69
2022-10-24T05:19:51.219Z,99967.88
2022-10-24T05:22:19.783Z,99968.06
2022-10-24T05:24:47.859Z,99963.38
2022-10-24T05:27:15.844Z,99972.34
2022-10-24T05:29:45.992Z,99965.50
2022-10-24T05:32:13.850Z,99965.50
2022-10-24T05:34:42.080Z,99962.38
2022-10-24T05:37:12.587Z,99964.38
2022-10-24T05:39:40.569Z,99960.66
2022-10-24T05:42:12.340Z,99966.53
2022-10-24T05:44:40.509Z,99965.13
2022-10-24T05:47:08.456Z,99957.16
2022-10-24T05:49:36.733Z,99944.28
2022-10-24T05:52:04.784Z,99934.06
2022-10-24T05:54:48.440Z,99908.78
2022-10-24T05:57:24.271Z,99895.97
2022-10-24T05:59:52.059Z,99895.63
2022-10-24T06:02:23.741Z,99878.88
2022-10-24T06:04:52.098Z,99859.34
2022-10-24T06:07:27.813Z,99863.81
2022-10-24T06:09:57.023Z,99858.81
2022-10-24T06:12:25.253Z,99854.66
2022-10-24T06:15:00.609Z,99831.88
2022-10-24T06:17:28.610Z,99817.56
2022-10-24T06:19:56.866Z,99790.63
2022-10-24T06:22:27.791Z,99774.63
2022-10-24T06:24:57.844Z,99790.56
2022-10-24T06:27:26.824Z,99788.06
2022-10-24T06:29:55.948Z,99795.13
2022-10-24T06:32:25.374Z,99810.78
2022-10-24T06:34:55.228Z,99849.13
2022-10-24T06:37:23.280Z,99847.72
2022-10-24T06:39:52.051Z,99855.19
2022-10-24T06:42:25.985Z,99870.56
2022-10-24T06:44:53.881Z,99885.94
2022-10-24T06:47:23.826Z,99893.09
2022-10-24T06:49:52.745Z,99891.56
2022-10-24T06:52:20.996Z,99880.38
2022-10-24T06:54:49.354Z,99876.19
2022-10-24T06:57:18.050Z,99918.56
2022-10-24T06:59:47.397Z,99901.25
2022-10-24T07:02:19.255Z,99874.59
2022-10-24T07:04:51.254Z,99824.22
2022-10-24T07:07:21.580Z,99786.78
2022-10-24T07:09:59.714Z,99758.78
2022-10-24T07:12:28.211Z,99752.34
2022-10-24T07:14:57.375Z,99771.50
2022-10-24T07:17:25.088Z,99766.44
2022-10-24T07:19:54.517Z,99759.16
2022-10-24T07:22:22.465Z,99766.81
2022-10-24T07:24:54.392Z,99772.75
2022-10-24T07:27:22.830Z,99786.88
2022-10-24T07:29:51.807Z,99804.00
2022-10-24T07:32:22.167Z,99805.03
2022-10-24T07:34:50.112Z,99782.59
2022-10-24T07:37:19.362Z,99770.63
2022-10-24T07:39:49.677Z,99759.56
2022-10-24T07:42:24.852Z,99731.88
2022-10-24T07:45:06.507Z,99707.34
2022-10-24T07:47:37.895Z,99708.41
2022-10-24T07:50:17.213Z,99683.69
2022-10-24T07:52:45.013Z,99718.25
2022-10-24T07:55:15.022Z,99711.91
2022-10-24T07:57:43.186Z,99687.44
2022-10-24T08:00:13.499Z,99683.38
2022-10-24T08:02:46.242Z,99708.03
2022-10-24T08:05:16.101Z,99730.53
2022-10-24T08:07:56.425Z,99735.06
2022-10-24T08:10:35.685Z,99730.78
2022-10-24T08:13:04.779Z,99736.25
2022-10-24T08:15:32.698Z,99734.41
2022-10-24T08:18:04.070Z,99689.28
2022-10-24T08:20:31.926Z,99690.91
2022-10-24T08:23:00.114Z,99697.72
2022-10-24T08:25:29.545Z,99699.13
2022-10-24T08:27:57.424Z,99708.97
2022-10-24T08:30:25.217Z,99712.50
2022-10-24T08:32:54.957Z,99713.47
2022-10-24T08:35:25.800Z,99693.06
2022-10-24T08:37:53.808Z,99747.41
2022-10-24T08:40:23.173Z,99765.16
2022-10-24T08:42:51.680Z,99766.59
2022-10-24T08:45:35.304Z,99775.47
2022-10-24T08:48:10.531Z,99779.88
2022-10-24T08:50:43.725Z,99778.41
2022-10-24T08:53:15.661Z,99767.69
2022-10-24T08:55:50.324Z,99751.13
2022-10-24T08:58:21.968Z,99745.78
2022-10-24T09:00:52.299Z,99759.97
2022-10-24T09:03:43.619Z,99756.66
2022-10-24T09:06:19.682Z,99722.78
2022-10-24T09:08:52.405Z,99682.28
2022-10-24T09:11:29.806Z,99609.50
2022-10-24T09:13:59.070Z,99717.69
2022-10-24T09:16:27.685Z,99715.31
2022-10-24T09:18:58.459Z,99742.44
2022-10-24T09:21:28.241Z,99774.25
2022-10-24T09:23:58.879Z,99770.06
2022-10-24T09:26:33.095Z,99757.88
2022-10-24T09:29:03.340Z,99720.19
2022-10-24T09:31:37.476Z,99711.81
2022-10-24T09:34:06.717Z,99700.19
2022-10-24T09:36:36.161Z,99728.09
2022-10-24T09:39:38.777Z,99768.72
2022-10-24T09:42:11.057Z,99793.56
2022-10-24T09:45:00.797Z,99812.94
2022-10-24T09:47:40.439Z,99836.16
2022-10-24T09:50:21.009Z,99836.13
2022-10-24T09:52:58.025Z,99840.34
2022-10-24T09:55:31.419Z,99816.56
2022-10-24T09:58:05.816Z,99816.41
2022-10-24T10:00:36.062Z,99827.41
2022-10-24T10:03:07.201Z,99851.00
2022-10-24T10:06:09.683Z,99866.00
2022-10-24T10:08:41.992Z,99839.63
2022-10-24T10:11:13.747Z,99855.09
2022-10-24T10:13:50.771Z,99846.28
2022-10-24T10:16:24.822Z,99821.72
2022-10-24T10:19:01.361Z,99842.00
2022-10-24T10:21:49.375Z,99829.03
2022-10-24T10:24:30.064Z,99838.84
2022-10-24T10:26:57.998Z,99847.78
2022-10-24T10:29:29.179Z,99860.22
2022-10-24T10:32:08.013Z,99879.34
2022-10-24T10:34:40.718Z,99877.66
2022-10-24T10:37:27.797Z,99879.63
2022-10-24T10:40:10.632Z,99890.03
2022-10-24T10:42:50.505Z,99866.94
2022-10-24T10:45:36.075Z,99891.59
2022-10-24T10:48:19.251Z,99902.13
2022-10-24T10:50:54.270Z,99893.69
2022-10-24T10:53:34.727Z,99895.44
2022-10-24T10:56:19.202Z,99923.66
2022-10-24T10:58:54.550Z,99916.13
2022-10-24T11:01:31.210Z,99920.66
2022-10-24T11:04:05.811Z,99948.00
2022-10-24T11:06:47.715Z,99929.34
2022-10-24T11:09:39.229Z,99945.72
2022-10-24T11:12:16.035Z,99952.03
2022-10-24T11:14:51.519Z,99950.94
2022-10-24T11:17:24.112Z,99953.00
2022-10-24T11:20:02.525Z,99957.28
2022-10-24T11:22:39.345Z,99946.81
2022-10-24T11:25:18.225Z,99944.25
2022-10-24T11:28:07.762Z,99958.53
2022-10-24T11:30:56.664Z,99962.69
2022-10-24T11:33:29.043Z,99973.38
2022-10-24T11:36:13.051Z,99960.00
2022-10-24T11:38:47.400Z,99985.06
2022-10-24T11:41:30.711Z,99983.22
2022-10-24T11:44:17.163Z,99995.03
2022-10-24T11:46:56.495Z,99987.38
2022-10-24T11:49:30.365Z,99997.03
2022-10-24T11:52:09.575Z,99998.00
2022-10-24T11:54:43.675Z,100002.72
2022-10-24T11:57:16.699Z,100001.56
2022-10-24T11:59:47.290Z,99987.94
2022-10-24T12:02:50.442Z,99980.53
2022-10-24T12:05:34.821Z,100005.94
2022-10-24T12:08:50.159Z,100023.22
2022-10-24T12:11:30.048Z,100007.44
2022-10-24T12:14:33.416Z,100024.09
2022-10-24T12:17:25.919Z,100016.84
2022-10-24T12:19:55.719Z,100029.66
2022-10-24T12:22:31.847Z,100031.34
2022-10-24T12:25:09.560Z,100039.53
2022-10-24T12:27:40.443Z,100053.34
2022-10-24T12:30:21.730Z,100056.75
2022-10-24T12:33:10.878Z,100024.50
2022-10-24T12:36:23.150Z,100050.19
2022-10-24T12:39:04.641Z,100055.03
2022-10-24T12:42:16.123Z,100068.91
2022-10-24T12:44:50.489Z,100066.91
2022-10-24T12:47:42.994Z,100091.34
2022-10-24T12:51:03.442Z,100071.41
2022-10-24T12:53:36.042Z,100078.09
2022-10-24T12:59:19.575Z,100064.94
2022-10-24T13:01:52.703Z,100093.34
2022-10-24T13:04:49.828Z,100077.28
2022-10-24T13:07:48.418Z,100106.59
2022-10-24T13:10:53.058Z,100101.16
2022-10-24T13:13:46.712Z,100080.22
2022-10-24T13:16:24.416Z,100086.47
2022-10-24T13:19:04.091Z,100097.97
2022-10-24T13:24:13.985Z,100057.66
2022-10-24T13:26:46.414Z,100104.41
2022-10-24T13:29:18.441Z,100102.22
2022-10-24T13:31:49.252Z,100108.31
2022-10-24T13:34:31.681Z,100111.84
2022-10-24T13:37:05.164Z,100101.84
2022-10-24T13:39:39.529Z,100110.47
2022-10-24T13:42:24.323Z,100079.84
2022-10-24T13:44:55.969Z,100077.75
2022-10-24T13:47:30.107Z,100108.72
2022-10-24T13:50:02.239Z,100126.97
2022-10-24T13:52:38.653Z,100130.94
2022-10-24T13:55:21.791Z,100144.75
2022-10-24T13:58:01.660Z,100141.88
2022-10-24T14:00:33.179Z,100145.31
2022-10-24T14:03:03.396Z,100116.59
2022-10-24T14:05:35.706Z,100137.28
2022-10-24T14:08:04.145Z,100147.31
2022-10-24T14:10:32.760Z,100144.56
2022-10-24T14:13:02.368Z,100147.47
2022-10-24T14:15:32.947Z,100136.09
2022-10-24T14:18:02.996Z,100133.16
2022-10-24T14:20:33.615Z,100141.91
2022-10-24T14:23:01.896Z,100138.53
2022-10-24T14:25:35.303Z,100141.66
2022-10-24T14:28:12.174Z,100138.22
2022-10-24T14:30:40.263Z,100132.91
2022-10-24T14:33:20.435Z,100132.38
2022-10-24T14:35:50.369Z,100132.13
2022-10-24T14:38:21.657Z,100145.31
2022-10-24T14:41:01.250Z,100123.13
2022-10-24T14:43:39.984Z,100121.22
2022-10-24T14:46:28.051Z,100108.09
2022-10-24T14:48:56.401Z,100106.09
2022-10-24T14:51:29.139Z,100124.25
2022-10-24T14:53:58.381Z,100137.09
2022-10-24T14:56:29.828Z,100142.97
2022-10-24T14:59:00.898Z,100159.38
2022-10-24T15:01:29.380Z,100159.53
2022-10-24T15:04:01.152Z,100182.88
2022-10-24T15:06:37.252Z,100213.19
2022-10-24T15:09:07.597Z,100210.22
2022-10-24T15:11:40.245Z,100224.94
2022-10-24T15:14:37.865Z,100229.22
2022-10-24T15:17:25.820Z,100217.69
2022-10-24T15:19:59.539Z,100194.50
2022-10-24T15:22:30.324Z,100195.03
2022-10-24T15:25:01.328Z,100177.13
2022-10-24T15:27:31.121Z,100182.31
2022-10-24T15:30:01.927Z,100208.31
2022-10-24T15:32:29.843Z,100224.34
2022-10-24T15:34:59.757Z,100235.41
2022-10-24T15:37:28.620Z,100249.50
2022-10-24T15:39:57.068Z,100272.13
2022-10-24T15:42:25.060Z,100284.53
2022-10-24T15:44:53.248Z,100301.69
2022-10-24T15:47:24.007Z,100313.34
2022-10-24T15:49:52.707Z,100323.47
2022-10-24T15:52:24.753Z,100337.00
2022-10-24T15:54:52.918Z,100298.56
2022-10-24T15:57:21.015Z,100332.31
2022-10-24T15:59:49.096Z,100378.47
2022-10-24T16:02:23.202Z,100403.63
2022-10-24T16:04:54.967Z,100433.94
2022-10-24T16:07:22.977Z,100445.38
2022-10-24T16:09:50.993Z,100446.41
2022-10-24T16:12:19.269Z,100442.88
2022-10-24T16:14:49.617Z,100462.50
2022-10-24T16:17:19.420Z,100451.09
2022-10-24T16:19:47.324Z,100459.47
2022-10-24T16:22:16.691Z,100483.09
2022-10-24T16:24:44.491Z,100477.38
2022-10-24T16:27:12.634Z,100479.66
2022-10-24T16:29:40.761Z,100485.50
2022-10-24T16:32:10.827Z,100603.25
2022-10-24T16:34:38.873Z,100544.34
2022-10-24T16:37:06.895Z,100533.75
2022-10-24T16:39:36.225Z,100539.25
2022-10-24T16:42:05.285Z,100536.50
2022-10-24T16:44:36.993Z,100545.16
2022-10-24T16:47:05.149Z,100554.53
2022-10-24T16:49:34.131Z,100551.09
2022-10-24T16:52:01.831Z,100565.28
2022-10-24T16:54:31.715Z,100571.63
2022-10-24T16:57:01.072Z,100588.94
2022-10-24T16:59:29.025Z,100671.63
2022-10-24T17:01:57.098Z,100696.09
2022-10-24T17:04:25.478Z,100684.88
2022-10-24T17:06:54.373Z,100684.25
2022-10-24T17:09:22.321Z,100691.63
2022-10-24T17:11:50.416Z,100693.19
2022-10-24T17:14:20.173Z,100698.66
2022-10-24T17:16:48.960Z,100693.59
2022-10-24T17:19:18.963Z,100703.38
2022-10-24T17:21:50.696Z,100708.94
2022-10-24T17:24:40.273Z,100717.28
2022-10-24T17:27:11.892Z,100723.63
2022-10-24T17:30:19.970Z,100723.72
2022-10-24T17:32:57.955Z,100755.97
2022-10-24T17:35:41.645Z,100767.09
2022-10-24T17:38:19.941Z,100757.66
2022-10-24T17:40:49.625Z,100755.44
2022-10-24T17:43:20.420Z,100748.81
2022-10-24T17:45:50.867Z,100751.53
2022-10-24T17:48:19.953Z,100745.47
2022-10-24T17:50:49.230Z,100741.31
2022-10-24T17:53:19.725Z,100731.63
2022-10-24T17:55:48.223Z,100729.25
2022-10-24T17:58:17.183Z,100706.09
2022-10-24T18:00:49.056Z,100715.19
2022-10-24T18:03:19.454Z,100712.63
2022-10-24T18:05:48.449Z,100712.78
2022-10-24T18:08:17.009Z,100716.22
2022-10-24T18:10:45.895Z,100716.97
2022-10-24T18:13:13.836Z,100713.38
2022-10-24T18:15:41.801Z,100709.41
2022-10-24T18:18:13.768Z,100728.00
2022-10-24T18:20:41.995Z,100725.09
2022-10-24T18:23:09.890Z,100722.84
2022-10-24T18:25:38.350Z,100730.41
2022-10-24T18:28:06.538Z,100680.22
2022-10-24T18:30:35.355Z,100667.88
2022-10-24T18:33:03.251Z,100670.13
2022-10-24T18:35:34.122Z,100666.38
2022-10-24T18:38:02.235Z,100673.56
2022-10-24T18:40:33.294Z,100662.06
2022-10-24T18:43:05.336Z,100662.22
2022-10-24T18:45:34.365Z,100675.84
2022-10-24T18:48:03.031Z,100676.63
2022-10-24T18:50:32.760Z,100683.66
2022-10-24T18:53:05.937Z,100684.03
2022-10-24T18:55:36.125Z,100697.91
2022-10-24T18:58:04.804Z,100688.56
2022-10-24T19:00:36.516Z,100697.41
2022-10-24T19:03:18.034Z,100709.53
2022-10-24T19:05:52.054Z,100714.00
2022-10-24T19:08:25.523Z,100725.09
2022-10-24T19:10:56.117Z,100728.78
2022-10-24T19:13:25.118Z,100725.16
2022-10-24T19:15:57.608Z,100732.13
2022-10-24T19:18:26.896Z,100738.56
2022-10-24T19:20:56.719Z,100746.69
2022-10-24T19:23:25.849Z,100742.53
2022-10-24T19:25:53.944Z,100760.94
2022-10-24T19:28:23.918Z,100757.06
2022-10-24T19:30:52.074Z,100765.03
2022-10-24T19:33:20.803Z,100766.41
2022-10-24T19:35:48.846Z,100766.63
2022-10-24T19:38:19.314Z,100768.63
2022-10-24T19:40:49.579Z,100767.63
2022-10-24T19:43:20.039Z,100764.72
2022-10-24T19:46:00.468Z,100769.59
2022-10-24T19:48:39.994Z,100761.03
2022-10-24T19:51:10.999Z,100754.00
2022-10-24T19:53:42.352Z,100746.97
2022-10-24T19:56:14.898Z,100740.00
2022-10-24T19:58:43.744Z,100732.31
2022-10-24T20:01:15.038Z,100718.19
2022-10-24T20:03:44.756Z,100705.03
2022-10-24T20:06:14.950Z,100700.81
2022-10-24T20:08:44.465Z,100689.69
2022-10-24T20:11:17.892Z,100683.38
2022-10-24T20:13:45.831Z,100667.59
2022-10-24T20:16:14.378Z,100654.31
2022-10-24T20:18:44.980Z,100635.94
2022-10-24T20:21:17.518Z,100632.94
2022-10-24T20:23:49.002Z,100627.44
2022-10-24T20:26:19.266Z,100597.44
2022-10-24T20:28:50.035Z,100592.44
2022-10-24T20:31:23.757Z,100590.53
2022-10-24T20:33:51.871Z,100574.28
2022-10-24T20:36:20.730Z,100568.31
2022-10-24T20:38:50.495Z,100561.06
2022-10-24T20:41:20.758Z,100552.25
2022-10-24T20:46:18.860Z,100543.66
2022-10-24T20:48:48.739Z,100534.72
2022-10-24T20:51:18.467Z,100528.16
2022-10-24T20:53:46.740Z,100530.81
2022-10-24T20:56:21.446Z,100523.09
2022-10-24T20:58:51.308Z,100507.19
2022-10-24T21:01:21.551Z,100516.25
2022-10-24T21:03:50.564Z,100503.13
2022-10-24T21:06:20.362Z,100509.22
2022-10-24T21:08:50.999Z,100511.31
2022-10-24T21:11:25.042Z,100506.44
2022-10-24T21:13:54.471Z,100505.38
2022-10-24T21:16:22.633Z,100502.88
2022-10-24T21:18:50.856Z,100498.28
2022-10-24T21:21:19.833Z,100499.34
2022-10-24T21:23:51.221Z,100486.88
2022-10-24T21:26:41.891Z,100483.78
2022-10-24T21:29:32.111Z,100471.09
2022-10-24T21:32:00.526Z,100464.88
2022-10-24T21:34:34.531Z,100453.06
2022-10-24T21:37:03.984Z,100453.13
2022-10-24T21:39:32.489Z,100442.53
2022-10-24T21:42:01.916Z,100437.88
2022-10-24T21:44:33.043Z,100432.91
2022-10-24T21:47:00.950Z,100424.97
2022-10-24T21:49:29.168Z,100426.69
2022-10-24T21:51:59.202Z,100409.97
2022-10-24T21:54:28.683Z,100421.72
2022-10-24T21:56:56.677Z,100416.88
2022-10-24T21:59:25.797Z,100407.81
2022-10-24T22:01:54.871Z,100406.09
2022-10-24T22:04:22.897Z,100414.00
2022-10-24T22:06:54.311Z,100394.50
2022-10-24T22:09:31.518Z,100404.81
2022-10-24T22:11:59.581Z,100402.88
2022-10-24T22:14:32.445Z,100396.19
2022-10-24T22:17:00.518Z,100379.59
2022-10-24T22:19:31.680Z,100385.50
2022-10-24T22:22:03.695Z,100376.53
2022-10-24T22:24:48.320Z,100384.56
2022-10-24T22:27:25.094Z,100388.22
2022-10-24T22:30:03.593Z,100376.00
2022-10-24T22:32:31.803Z,100388.16
2022-10-24T22:35:01.148Z,100379.13
2022-10-24T22:37:34.910Z,100376.31
2022-10-24T22:40:03.801Z,100383.97
2022-10-24T22:42:31.892Z,100375.94
2022-10-24T22:45:00.513Z,100373.81
2022-10-24T22:47:47.838Z,100378.47
2022-10-24T22:50:36.157Z,100378.97
2022-10-24T22:53:11.546Z,100373.44
2022-10-24T22:55:51.658Z,100375.09
2022-10-24T22:58:20.476Z,100367.72
2022-10-24T23:00:55.114Z,100379.53
2022-10-24T23:03:40.425Z,100370.56
2022-10-24T23:06:18.223Z,100370.00
2022-10-24T23:08:46.889Z,100375.47
2022-10-24T23:11:15.566Z,100373.75
2022-10-24T23:13:43.986Z,100379.31
2022-10-24T23:16:32.727Z,100369.16
2022-10-24T23:19:02.517Z,100357.44
2022-10-24T23:21:36.523Z,100366.34
2022-10-24T23:24:05.116Z,100363.16
2022-10-24T23:26:42.286Z,100356.13
2022-10-24T23:29:16.291Z,100365.63
2022-10-24T23:31:44.809Z,100360.84
2022-10-24T23:34:17.667Z,100366.84
2022-10-24T23:36:46.540Z,100355.34
2022-10-24T23:41:51.882Z,100358.88
2022-10-24T23:44:20.660Z,100366.66
2022-10-24T23:46:51.949Z,100361.81
2022-10-24T23:49:31.746Z,100364.63
2022-10-24T23:52:09.841Z,100359.03
2022-10-24T23:54:38.339Z,100361.75
2022-10-24T23:57:16.080Z,100361.28
2022-10-24T23:59:44.803Z,100363.53
